createdAt,value
2022-11-17T00:00:33.546Z,93914.69
2022-11-17T00:03:01.204Z,93911.22
2022-11-17T00:05:28.895Z,93909.09
2022-11-17T00:08:00.844Z,93909.91
2022-11-17T00:10:28.529Z,93908.88
2022-11-17T00:13:28.381Z,93912.91
2022-11-17T00:15:56.035Z,93912.38
2022-11-17T00:18:41.443Z,93914.25
2022-11-17T00:21:21.301Z,93906.00
2022-11-17T00:26:24.543Z,93899.06
2022-11-17T00:28:55.634Z,93895.03
2022-11-17T00:31:42.137Z,93904.91
2022-11-17T00:34:14.532Z,93895.31
2022-11-17T00:36:44.983Z,93894.53
2022-11-17T00:39:14.309Z,93891.31
2022-11-17T00:41:43.488Z,93899.09
2022-11-17T00:44:11.275Z,93892.94
2022-11-17T00:46:39.796Z,93886.28
2022-11-17T00:49:08.727Z,93890.03
2022-11-17T00:51:39.772Z,93888.44
2022-11-17T00:54:10.971Z,93887.63
2022-11-17T00:56:43.383Z,93883.09
2022-11-17T00:59:11.327Z,93884.69
2022-11-17T01:01:39.702Z,93891.91
2022-11-17T01:04:08.271Z,93887.88
2022-11-17T01:06:37.834Z,93889.22
2022-11-17T01:09:09.308Z,93883.63
2022-11-17T01:11:36.970Z,93886.84
2022-11-17T01:14:06.034Z,93875.59
2022-11-17T01:16:34.380Z,93877.75
2022-11-17T01:19:03.463Z,93878.81
2022-11-17T01:21:32.475Z,93877.75
2022-11-17T01:24:02.867Z,93879.03
2022-11-17T01:26:33.367Z,93873.69
2022-11-17T01:29:02.304Z,93866.22
2022-11-17T01:31:34.633Z,93881.44
2022-11-17T01:34:02.486Z,93880.63
2022-11-17T01:36:51.936Z,93882.75
2022-11-17T01:39:19.951Z,93895.03
2022-11-17T01:41:47.959Z,93902.50
2022-11-17T01:44:54.537Z,93903.59
2022-11-17T01:47:27.106Z,93895.28
2022-11-17T01:49:59.306Z,93890.19
2022-11-17T01:52:27.501Z,93884.56
2022-11-17T01:54:58.120Z,93881.38
2022-11-17T01:57:31.521Z,93879.72
2022-11-17T02:00:02.859Z,93869.03
2022-11-17T02:02:32.587Z,93855.38
2022-11-17T02:05:07.747Z,93853.50
2022-11-17T02:07:42.784Z,93853.44
2022-11-17T02:10:11.258Z,93863.25
2022-11-17T02:12:39.743Z,93874.22
2022-11-17T02:15:08.272Z,93863.78
2022-11-17T02:17:40.219Z,93860.84
2022-11-17T02:20:13.114Z,93835.41
2022-11-17T02:23:05.021Z,93823.34
2022-11-17T02:25:49.791Z,93836.34
2022-11-17T02:28:23.051Z,93826.72
2022-11-17T02:31:02.885Z,93822.63
2022-11-17T02:33:44.817Z,93815.13
2022-11-17T02:36:21.295Z,93810.28
2022-11-17T02:38:55.461Z,93808.66
2022-11-17T02:41:28.548Z,93810.81
2022-11-17T02:44:05.477Z,93806.00
2022-11-17T02:46:46.611Z,93816.19
2022-11-17T02:49:20.889Z,93800.88
2022-11-17T02:51:54.011Z,93797.31
2022-11-17T02:54:23.731Z,93787.41
2022-11-17T02:56:51.470Z,93783.34
2022-11-17T02:59:24.832Z,93782.66
2022-11-17T03:02:22.431Z,93783.94
2022-11-17T03:05:03.003Z,93793.28
2022-11-17T03:07:46.934Z,93785.06
2022-11-17T03:10:19.007Z,93779.81
2022-11-17T03:12:56.055Z,93762.94
2022-11-17T03:15:33.914Z,93763.16
2022-11-17T03:18:09.450Z,93755.06
2022-11-17T03:20:41.623Z,93749.19
2022-11-17T03:23:14.902Z,93751.63
2022-11-17T03:25:47.362Z,93750.13
2022-11-17T03:28:20.975Z,93752.66
2022-11-17T03:30:52.571Z,93745.75
2022-11-17T03:33:23.852Z,93746.13
2022-11-17T03:35:57.977Z,93739.75
2022-11-17T03:38:29.721Z,93736.84
2022-11-17T03:41:00.315Z,93740.78
2022-11-17T03:43:30.459Z,93738.38
2022-11-17T03:46:05.104Z,93742.41
2022-11-17T03:48:39.344Z,93739.94
2022-11-17T03:51:10.238Z,93742.00
2022-11-17T03:53:38.585Z,93729.97
2022-11-17T03:56:16.700Z,93725.88
2022-11-17T03:58:54.170Z,93709.00
2022-11-17T04:01:24.154Z,93708.97
2022-11-17T04:03:53.105Z,93710.75
2022-11-17T04:06:20.828Z,93704.00
2022-11-17T04:08:48.507Z,93699.06
2022-11-17T04:11:33.776Z,93687.22
2022-11-17T04:14:20.499Z,93693.91
2022-11-17T04:16:49.524Z,93688.56
2022-11-17T04:19:17.272Z,93683.91
2022-11-17T04:21:44.946Z,93679.88
2022-11-17T04:24:12.726Z,93680.06
2022-11-17T04:26:58.097Z,93686.38
2022-11-17T04:29:25.825Z,93691.44
2022-11-17T04:31:55.218Z,93694.06
2022-11-17T04:34:22.930Z,93679.91
2022-11-17T04:36:50.900Z,93682.03
2022-11-17T04:39:18.694Z,93674.66
2022-11-17T04:41:54.502Z,93681.03
2022-11-17T04:44:24.358Z,93686.63
2022-11-17T04:46:52.523Z,93678.66
2022-11-17T04:49:23.378Z,93673.97
2022-11-17T04:51:52.664Z,93666.41
2022-11-17T04:54:22.207Z,93668.66
2022-11-17T04:56:49.847Z,93670.16
2022-11-17T04:59:21.264Z,93675.81
2022-11-17T05:01:49.671Z,93667.25
2022-11-17T05:04:40.272Z,93664.63
2022-11-17T05:07:10.201Z,93666.69
2022-11-17T05:09:37.954Z,93662.13
2022-11-17T05:12:23.397Z,93656.25
2022-11-17T05:14:52.335Z,93662.03
2022-11-17T05:17:20.817Z,93663.88
2022-11-17T05:19:52.453Z,93671.28
2022-11-17T05:22:41.368Z,93687.09
2022-11-17T05:25:09.757Z,93685.59
2022-11-17T05:27:37.879Z,93682.22
2022-11-17T05:30:09.792Z,93680.50
2022-11-17T05:32:37.542Z,93690.00
2022-11-17T05:35:05.805Z,93694.78
2022-11-17T05:37:34.816Z,93708.50
2022-11-17T05:40:02.477Z,93731.00
2022-11-17T05:42:30.153Z,93737.81
2022-11-17T05:44:57.815Z,93723.00
2022-11-17T05:47:25.519Z,93762.56
2022-11-17T05:49:53.196Z,93746.38
2022-11-17T05:52:22.082Z,93729.56
2022-11-17T05:54:51.147Z,93743.72
2022-11-17T05:57:29.431Z,93747.41
2022-11-17T06:00:04.168Z,93745.94
2022-11-17T06:02:36.590Z,93746.06
2022-11-17T06:05:04.588Z,93756.66
2022-11-17T06:07:32.357Z,93770.72
2022-11-17T06:10:01.449Z,93774.53
2022-11-17T06:12:29.115Z,93768.88
2022-11-17T06:14:56.801Z,93752.81
2022-11-17T06:17:29.081Z,93770.75
2022-11-17T06:20:01.085Z,93755.19
2022-11-17T06:22:29.061Z,93747.63
2022-11-17T06:24:57.423Z,93761.00
2022-11-17T06:27:27.498Z,93754.31
2022-11-17T06:29:57.228Z,93750.03
2022-11-17T06:32:24.902Z,93729.53
2022-11-17T06:34:56.174Z,93716.38
2022-11-17T06:37:24.951Z,93715.44
2022-11-17T06:39:52.736Z,93705.50
2022-11-17T06:42:40.415Z,93700.44
2022-11-17T06:45:11.103Z,93710.19
2022-11-17T06:47:41.760Z,93715.06
2022-11-17T06:50:10.571Z,93726.13
2022-11-17T06:52:41.164Z,93719.06
2022-11-17T06:55:09.771Z,93720.16
2022-11-17T06:57:37.536Z,93735.59
2022-11-17T07:00:07.058Z,93729.22
2022-11-17T07:02:37.180Z,93736.91
2022-11-17T07:05:05.298Z,93746.59
2022-11-17T07:07:33.114Z,93747.19
2022-11-17T07:10:00.891Z,93731.03
2022-11-17T07:12:30.325Z,93729.00
2022-11-17T07:14:58.046Z,93732.81
2022-11-17T07:17:28.205Z,93744.09
2022-11-17T07:19:57.449Z,93753.13
2022-11-17T07:22:25.826Z,93768.91
2022-11-17T07:24:53.548Z,93763.03
2022-11-17T07:27:21.312Z,93754.84
2022-11-17T07:29:49.076Z,93752.63
2022-11-17T07:32:16.790Z,93757.13
2022-11-17T07:34:44.980Z,93771.19
2022-11-17T07:37:17.455Z,93779.25
2022-11-17T07:39:45.198Z,93778.81
2022-11-17T07:42:12.905Z,93774.06
2022-11-17T07:44:40.616Z,93795.19
2022-11-17T07:47:08.479Z,93769.94
2022-11-17T07:49:36.174Z,93786.41
2022-11-17T07:52:03.977Z,93768.53
2022-11-17T07:54:33.062Z,93764.53
2022-11-17T07:57:00.834Z,93763.94
2022-11-17T07:59:28.727Z,93769.94
2022-11-17T08:01:56.513Z,93768.94
2022-11-17T08:04:24.441Z,93765.94
2022-11-17T08:06:52.267Z,93774.88
2022-11-17T08:09:20.048Z,93775.59
2022-11-17T08:11:49.499Z,93769.88
2022-11-17T08:14:17.217Z,93778.16
2022-11-17T08:16:44.965Z,93792.06
2022-11-17T08:19:14.255Z,93801.75
2022-11-17T08:21:42.190Z,93803.59
2022-11-17T08:24:13.169Z,93812.19
2022-11-17T08:26:41.093Z,93821.38
2022-11-17T08:29:10.178Z,93840.53
2022-11-17T08:31:38.725Z,93826.34
2022-11-17T08:34:06.427Z,93858.91
2022-11-17T08:36:34.142Z,93850.03
2022-11-17T08:39:02.049Z,93853.16
2022-11-17T08:41:29.812Z,93850.03
2022-11-17T08:43:57.522Z,93838.41
2022-11-17T08:46:27.115Z,93815.94
2022-11-17T08:48:57.154Z,93801.69
2022-11-17T08:51:25.392Z,93779.72
2022-11-17T08:53:53.114Z,93771.53
2022-11-17T08:56:20.901Z,93760.31
2022-11-17T08:58:48.890Z,93753.84
2022-11-17T09:01:17.539Z,93760.75
2022-11-17T09:03:48.717Z,93743.44
2022-11-17T09:06:17.708Z,93749.97
2022-11-17T09:08:46.907Z,93736.06
2022-11-17T09:11:16.487Z,93754.34
2022-11-17T09:13:45.682Z,93742.28
2022-11-17T09:16:14.379Z,93743.50
2022-11-17T09:18:42.362Z,93759.31
2022-11-17T09:21:13.570Z,93756.59
2022-11-17T09:23:41.279Z,93762.94
2022-11-17T09:26:11.440Z,93755.63
2022-11-17T09:28:42.117Z,93754.13
2022-11-17T09:31:11.719Z,93747.63
2022-11-17T09:33:39.857Z,93756.75
2022-11-17T09:36:08.366Z,93744.66
2022-11-17T09:38:38.796Z,93735.06
2022-11-17T09:41:22.222Z,93731.75
2022-11-17T09:43:55.602Z,93730.19
2022-11-17T09:46:31.586Z,93727.75
2022-11-17T09:49:07.258Z,93732.78
2022-11-17T09:51:37.345Z,93723.06
2022-11-17T09:54:14.523Z,93720.09
2022-11-17T09:56:42.338Z,93718.47
2022-11-17T09:59:15.307Z,93733.53
2022-11-17T10:01:43.401Z,93729.00
2022-11-17T10:04:16.799Z,93727.94
2022-11-17T10:06:47.269Z,93729.91
2022-11-17T10:09:25.713Z,93730.28
2022-11-17T10:11:55.561Z,93722.19
2022-11-17T10:14:23.797Z,93732.00
2022-11-17T10:16:53.758Z,93732.69
2022-11-17T10:19:24.276Z,93730.38
2022-11-17T10:21:55.204Z,93730.81
2022-11-17T10:24:38.678Z,93727.56
2022-11-17T10:27:15.908Z,93741.19
2022-11-17T10:29:57.825Z,93742.69
2022-11-17T10:32:25.860Z,93748.94
2022-11-17T10:34:54.181Z,93743.25
2022-11-17T10:37:30.144Z,93741.78
2022-11-17T10:40:20.575Z,93746.75
2022-11-17T10:42:58.918Z,93744.41
2022-11-17T10:45:27.085Z,93748.00
2022-11-17T10:48:09.211Z,93739.38
2022-11-17T10:50:36.984Z,93749.59
2022-11-17T10:53:23.328Z,93751.97
2022-11-17T10:55:59.297Z,93743.56
2022-11-17T10:58:28.604Z,93731.38
2022-11-17T11:00:58.481Z,93730.44
2022-11-17T11:03:29.307Z,93728.88
2022-11-17T11:06:10.748Z,93732.84
2022-11-17T11:08:48.198Z,93727.34
2022-11-17T11:11:34.883Z,93731.78
2022-11-17T11:14:14.029Z,93715.38
2022-11-17T11:16:47.612Z,93719.34
2022-11-17T11:19:17.868Z,93728.69
2022-11-17T11:21:56.780Z,93720.50
2022-11-17T11:24:31.732Z,93719.72
2022-11-17T11:27:07.540Z,93721.06
2022-11-17T11:29:51.336Z,93720.34
2022-11-17T11:32:30.643Z,93731.97
2022-11-17T11:35:17.410Z,93738.47
2022-11-17T11:37:53.270Z,93744.34
2022-11-17T11:40:27.745Z,93748.25
2022-11-17T11:42:59.532Z,93742.06
2022-11-17T11:45:46.959Z,93749.38
2022-11-17T11:48:20.365Z,93750.13
2022-11-17T11:50:57.491Z,93750.41
2022-11-17T11:53:45.204Z,93741.38
2022-11-17T11:56:18.432Z,93737.94
2022-11-17T11:58:54.152Z,93737.69
2022-11-17T12:01:23.933Z,93730.88
2022-11-17T12:04:07.096Z,93728.53
2022-11-17T12:06:41.191Z,93721.09
2022-11-17T12:09:32.998Z,93730.28
2022-11-17T12:12:01.742Z,93722.91
2022-11-17T12:14:32.882Z,93736.16
2022-11-17T12:17:07.319Z,93741.53
2022-11-17T12:19:54.547Z,93732.13
2022-11-17T12:22:59.385Z,93735.06
2022-11-17T12:25:31.041Z,93744.84
2022-11-17T12:27:58.801Z,93735.88
2022-11-17T12:30:54.087Z,93745.22
2022-11-17T12:33:22.121Z,93738.63
2022-11-17T12:36:16.821Z,93728.78
2022-11-17T12:38:44.736Z,93725.09
2022-11-17T12:41:13.060Z,93722.47
2022-11-17T12:43:40.768Z,93726.91
2022-11-17T12:46:21.430Z,93733.28
2022-11-17T12:49:07.915Z,93723.94
2022-11-17T12:51:41.071Z,93720.94
2022-11-17T12:54:23.194Z,93716.84
2022-11-17T12:57:05.161Z,93732.75
2022-11-17T13:00:05.285Z,93733.09
2022-11-17T13:02:59.702Z,93733.88
2022-11-17T13:05:30.087Z,93733.84
2022-11-17T13:08:25.743Z,93735.47
2022-11-17T13:11:04.596Z,93727.84
2022-11-17T13:13:34.927Z,93729.72
2022-11-17T13:16:07.134Z,93728.47
2022-11-17T13:18:38.822Z,93719.56
2022-11-17T13:21:28.709Z,93730.59
2022-11-17T13:23:57.514Z,93725.91
2022-11-17T13:26:27.507Z,93727.88
2022-11-17T13:29:08.612Z,93731.75
2022-11-17T13:31:36.730Z,93730.97
2022-11-17T13:34:08.643Z,93727.22
2022-11-17T13:36:36.446Z,93730.22
2022-11-17T13:39:04.982Z,93725.53
2022-11-17T13:41:38.222Z,93710.25
2022-11-17T13:44:09.640Z,93710.19
2022-11-17T13:46:38.764Z,93718.25
2022-11-17T13:49:35.392Z,93706.47
2022-11-17T13:52:03.245Z,93698.69
2022-11-17T13:54:31.478Z,93713.22
2022-11-17T13:57:08.226Z,93728.31
2022-11-17T13:59:39.506Z,93730.13
2022-11-17T14:02:31.022Z,93738.00
2022-11-17T14:05:23.590Z,93740.88
2022-11-17T14:07:52.936Z,93737.63
2022-11-17T14:10:39.313Z,93733.25
2022-11-17T14:13:21.991Z,93740.19
2022-11-17T14:15:56.497Z,93742.13
2022-11-17T14:18:29.509Z,93745.72
2022-11-17T14:21:13.403Z,93746.41
2022-11-17T14:23:41.751Z,93740.84
2022-11-17T14:26:20.874Z,93740.97
2022-11-17T14:28:50.073Z,93746.38
2022-11-17T14:31:18.441Z,93734.03
2022-11-17T14:33:46.665Z,93744.78
2022-11-17T14:36:17.637Z,93745.13
2022-11-17T14:38:46.012Z,93745.31
2022-11-17T14:41:16.090Z,93740.13
2022-11-17T14:43:43.861Z,93739.19
2022-11-17T14:46:19.699Z,93747.06
2022-11-17T14:48:47.554Z,93744.22
2022-11-17T14:51:17.167Z,93744.50
2022-11-17T14:53:45.027Z,93751.72
2022-11-17T14:56:15.810Z,93743.91
2022-11-17T14:58:43.523Z,93750.69
2022-11-17T15:01:12.424Z,93744.63
2022-11-17T15:03:40.327Z,93750.06
2022-11-17T15:06:09.827Z,93754.06
2022-11-17T15:08:40.237Z,93752.09
2022-11-17T15:11:07.971Z,93758.81
2022-11-17T15:13:35.679Z,93755.44
2022-11-17T15:16:04.188Z,93763.00
2022-11-17T15:18:32.301Z,93756.09
2022-11-17T15:21:04.864Z,93763.91
2022-11-17T15:23:32.955Z,93759.19
2022-11-17T15:26:04.541Z,93755.41
2022-11-17T15:28:32.653Z,93766.88
2022-11-17T15:31:00.592Z,93763.03
2022-11-17T15:33:28.306Z,93769.66
2022-11-17T15:36:03.018Z,93762.97
2022-11-17T15:38:31.818Z,93769.31
2022-11-17T15:40:59.977Z,93759.13
2022-11-17T15:43:32.774Z,93764.34
2022-11-17T15:46:05.235Z,93771.19
2022-11-17T15:48:33.401Z,93770.25
2022-11-17T15:51:03.120Z,93763.84
2022-11-17T15:53:32.432Z,93763.66
2022-11-17T15:56:04.958Z,93768.22
2022-11-17T15:58:34.227Z,93766.47
2022-11-17T16:01:13.252Z,93763.06
2022-11-17T16:03:42.336Z,93763.09
2022-11-17T16:06:11.690Z,93778.84
2022-11-17T16:08:40.107Z,93771.28
2022-11-17T16:11:08.557Z,93784.44
2022-11-17T16:13:38.145Z,93790.69
2022-11-17T16:16:07.367Z,93783.38
2022-11-17T16:18:35.592Z,93786.22
2022-11-17T16:21:05.174Z,93786.75
2022-11-17T16:23:38.877Z,93779.16
2022-11-17T16:26:06.728Z,93775.16
2022-11-17T16:28:34.507Z,93780.56
2022-11-17T16:31:13.269Z,93771.31
2022-11-17T16:33:41.022Z,93778.81
2022-11-17T16:36:10.051Z,93763.03
2022-11-17T16:38:45.623Z,93764.69
2022-11-17T16:41:23.840Z,93765.50
2022-11-17T16:43:54.997Z,93760.31
2022-11-17T16:46:26.089Z,93754.75
2022-11-17T16:48:54.253Z,93757.75
2022-11-17T16:51:23.523Z,93746.88
2022-11-17T16:53:56.857Z,93748.78
2022-11-17T16:56:24.992Z,93750.69
2022-11-17T16:58:53.304Z,93750.28
2022-11-17T17:01:22.788Z,93753.03
2022-11-17T17:03:56.001Z,93751.22
2022-11-17T17:06:23.917Z,93757.44
2022-11-17T17:08:54.846Z,93743.66
2022-11-17T17:11:23.078Z,93745.75
2022-11-17T17:13:51.293Z,93744.84
2022-11-17T17:16:21.171Z,93741.97
2022-11-17T17:18:49.257Z,93728.59
2022-11-17T17:21:20.365Z,93743.91
2022-11-17T17:23:48.178Z,93741.81
2022-11-17T17:26:18.542Z,93723.25
2022-11-17T17:28:48.398Z,93731.66
2022-11-17T17:31:21.298Z,93725.34
2022-11-17T17:33:51.070Z,93734.91
2022-11-17T17:36:21.966Z,93739.97
2022-11-17T17:38:55.447Z,93750.59
2022-11-17T17:41:25.799Z,93753.72
2022-11-17T17:43:58.355Z,93751.13
2022-11-17T17:46:26.907Z,93754.75
2022-11-17T17:48:54.810Z,93757.38
2022-11-17T17:51:25.631Z,93758.09
2022-11-17T17:53:54.314Z,93756.56
2022-11-17T17:56:23.601Z,93756.78
2022-11-17T17:58:51.789Z,93744.94
2022-11-17T18:01:21.505Z,93748.75
2022-11-17T18:03:50.863Z,93744.25
2022-11-17T18:06:21.015Z,93743.78
2022-11-17T18:08:53.626Z,93751.56
2022-11-17T18:11:22.398Z,93750.16
2022-11-17T18:13:51.988Z,93754.84
2022-11-17T18:16:22.408Z,93748.16
2022-11-17T18:18:50.880Z,93749.16
2022-11-17T18:21:20.307Z,93752.66
2022-11-17T18:23:48.283Z,93754.63
2022-11-17T18:26:19.784Z,93755.81
2022-11-17T18:28:52.553Z,93752.22
2022-11-17T18:31:21.441Z,93747.94
2022-11-17T18:33:52.021Z,93756.81
2022-11-17T18:36:20.132Z,93760.06
2022-11-17T18:38:48.588Z,93754.78
2022-11-17T18:41:18.648Z,93753.22
2022-11-17T18:43:46.978Z,93755.50
2022-11-17T18:46:16.706Z,93753.22
2022-11-17T18:48:46.347Z,93751.34
2022-11-17T18:51:20.540Z,93759.91
2022-11-17T18:53:49.443Z,93761.81
2022-11-17T18:56:20.829Z,93751.13
2022-11-17T18:58:48.688Z,93752.72
2022-11-17T19:01:18.792Z,93754.63
2022-11-17T19:03:48.778Z,93751.03
2022-11-17T19:06:17.995Z,93758.81
2022-11-17T19:08:46.288Z,93757.22
2022-11-17T19:11:14.145Z,93747.25
2022-11-17T19:13:44.326Z,93741.56
2022-11-17T19:16:14.514Z,93743.28
2022-11-17T19:18:42.838Z,93747.06
2022-11-17T19:21:12.485Z,93746.56
2022-11-17T19:23:41.927Z,93744.19
2022-11-17T19:26:11.810Z,93751.66
2022-11-17T19:28:40.001Z,93746.47
2022-11-17T19:31:10.886Z,93746.06
2022-11-17T19:33:40.481Z,93744.69
2022-11-17T19:36:10.693Z,93748.84
2022-11-17T19:38:39.172Z,93751.44
2022-11-17T19:41:08.857Z,93753.84
2022-11-17T19:43:43.368Z,93740.66
2022-11-17T19:46:15.755Z,93733.97
2022-11-17T19:48:44.402Z,93742.84
2022-11-17T19:51:15.706Z,93754.22
2022-11-17T19:53:43.735Z,93753.19
2022-11-17T19:56:12.001Z,93759.38
2022-11-17T19:58:41.041Z,93764.97
2022-11-17T20:01:11.428Z,93760.25
2022-11-17T20:03:44.040Z,93753.56
2022-11-17T20:06:15.793Z,93752.72
2022-11-17T20:08:44.968Z,93753.72
2022-11-17T20:11:17.304Z,93753.22
2022-11-17T20:13:46.333Z,93755.81
2022-11-17T20:16:18.248Z,93761.69
2022-11-17T20:18:53.161Z,93773.03
2022-11-17T20:21:21.448Z,93772.72
2022-11-17T20:23:49.657Z,93761.56
2022-11-17T20:26:19.301Z,93760.91
2022-11-17T20:28:47.946Z,93756.59
2022-11-17T20:31:19.371Z,93756.81
2022-11-17T20:33:49.456Z,93759.94
2022-11-17T20:36:20.288Z,93758.97
2022-11-17T20:38:51.700Z,93761.56
2022-11-17T20:41:21.125Z,93753.47
2022-11-17T20:43:50.312Z,93757.38
2022-11-17T20:46:18.993Z,93763.38
2022-11-17T20:48:49.099Z,93765.84
2022-11-17T20:51:18.816Z,93769.13
2022-11-17T20:53:47.201Z,93761.84
2022-11-17T20:56:17.058Z,93766.94
2022-11-17T20:58:45.336Z,93766.06
2022-11-17T21:01:15.599Z,93765.34
2022-11-17T21:03:44.067Z,93764.34
2022-11-17T21:06:15.401Z,93770.34
2022-11-17T21:08:46.028Z,93771.72
2022-11-17T21:11:32.098Z,93771.28
2022-11-17T21:14:02.012Z,93775.69
2022-11-17T21:16:31.482Z,93782.66
2022-11-17T21:19:00.772Z,93780.44
2022-11-17T21:21:31.349Z,93773.78
2022-11-17T21:23:59.916Z,93780.00
2022-11-17T21:26:29.491Z,93784.13
2022-11-17T21:29:03.219Z,93790.31
2022-11-17T21:31:35.859Z,93784.34
2022-11-17T21:34:08.364Z,93779.41
2022-11-17T21:36:39.928Z,93772.78
2022-11-17T21:39:10.579Z,93775.66
2022-11-17T21:41:38.597Z,93787.13
2022-11-17T21:44:08.822Z,93792.19
2022-11-17T21:46:37.058Z,93793.78
2022-11-17T21:49:06.802Z,93810.88
2022-11-17T21:51:40.053Z,93814.38
2022-11-17T21:54:12.616Z,93817.16
2022-11-17T21:56:41.416Z,93826.00
2022-11-17T21:59:14.621Z,93820.53
2022-11-17T22:01:44.734Z,93815.88
2022-11-17T22:04:13.324Z,93814.66
2022-11-17T22:06:42.757Z,93822.03
2022-11-17T22:09:10.483Z,93822.34
2022-11-17T22:11:38.990Z,93826.16
2022-11-17T22:14:11.888Z,93829.19
2022-11-17T22:16:41.385Z,93830.78
2022-11-17T22:19:10.134Z,93835.56
2022-11-17T22:21:38.702Z,93838.16
2022-11-17T22:24:10.499Z,93838.63
2022-11-17T22:26:38.742Z,93848.19
2022-11-17T22:29:08.159Z,93852.47
2022-11-17T22:31:35.930Z,93849.16
2022-11-17T22:34:03.871Z,93852.66
2022-11-17T22:36:31.629Z,93858.63
2022-11-17T22:38:59.393Z,93856.47
2022-11-17T22:41:28.506Z,93859.16
2022-11-17T22:43:57.617Z,93865.84
2022-11-17T22:46:27.016Z,93875.13
2022-11-17T22:48:54.926Z,93869.09
2022-11-17T22:51:40.584Z,93883.56
2022-11-17T22:54:09.054Z,93886.16
2022-11-17T22:56:38.153Z,93878.25
2022-11-17T23:04:00.583Z,93888.94
2022-11-17T23:06:28.462Z,93889.59
2022-11-17T23:08:58.041Z,93890.56
2022-11-17T23:11:41.911Z,93888.66
2022-11-17T23:14:12.263Z,93887.88
2022-11-17T23:16:40.454Z,93888.97
2022-11-17T23:19:13.380Z,93886.28
2022-11-17T23:21:41.380Z,93891.06
2022-11-17T23:24:12.529Z,93884.88
2022-11-17T23:26:40.877Z,93882.78
2022-11-17T23:29:09.359Z,93874.00
2022-11-17T23:31:37.038Z,93861.28
2022-11-17T23:34:04.896Z,93863.19
2022-11-17T23:36:33.978Z,93865.25
2022-11-17T23:39:01.633Z,93857.75
2022-11-17T23:41:29.425Z,93852.34
2022-11-17T23:43:57.079Z,93854.38
2022-11-17T23:46:26.575Z,93848.38
2022-11-17T23:48:56.151Z,93850.38
2022-11-17T23:51:26.234Z,93842.44
2022-11-17T23:53:55.225Z,93846.72
2022-11-17T23:56:23.390Z,93837.53
2022-11-17T23:58:52.002Z,93839.94
